Aviation Digital Data Service (ADDS)

Output produced by METARs form (0001 UTC 26 June 2019)
found at http://aviationweather.gov/metar/data/
 
KLFT 252332Z 2600/2624 VRB05KT P6SM SCT020 BKN050 
     TEMPO 2601/2604 VRB15G25KT 3SM SHRA BKN020 
     FM260800 32011KT P6SM VCSH SCT050 BKN120 
     FM261300 VRB06KT P6SM VCSH SCT025 BKN050